sensor_id;sensor_type;location;lat;lon;timestamp;P1;durP1;ratioP1;P2;durP2;ratioP2
4305;SDS011;2166;49.926;8.608;2023-06-10T00:01:43;10.25;;;8.00;;
4305;SDS011;2166;49.926;8.608;2023-06-10T00:04:20;11.90;;;7.80;;
4305;SDS011;2166;49.926;8.608;2023-06-10T00:06:56;9.90;;;7.57;;
4305;SDS011;2166;49.926;8.608;2023-06-10T00:09:40;11.95;;;7.82;;
4305;SDS011;2166;49.926;8.608;2023-06-10T00:12:11;12.07;;;8.60;;
4305;SDS011;2166;49.926;8.608;2023-06-10T00:14:40;13.68;;;8.32;;
4305;SDS011;2166;49.926;8.608;2023-06-10T00:17:08;12.35;;;7.97;;
4305;SDS011;2166;49.926;8.608;2023-06-10T00:19:43;11.02;;;8.02;;
4305;SDS011;2166;49.926;8.608;2023-06-10T00:22:13;8.23;;;7.28;;
4305;SDS011;2166;49.926;8.608;2023-06-10T00:24:53;9.38;;;8.45;;
4305;SDS011;2166;49.926;8.608;2023-06-10T00:27:38;10.20;;;8.32;;
4305;SDS011;2166;49.926;8.608;2023-06-10T00:30:07;10.60;;;7.43;;
4305;SDS011;2166;49.926;8.608;2023-06-10T00:32:38;10.30;;;8.05;;
4305;SDS011;2166;49.926;8.608;2023-06-10T00:35:10;9.25;;;7.90;;
4305;SDS011;2166;49.926;8.608;2023-06-10T00:37:46;13.50;;;8.30;;
4305;SDS011;2166;49.926;8.608;2023-06-10T00:40:20;13.27;;;8.70;;
4305;SDS011;2166;49.926;8.608;2023-06-10T00:42:50;11.75;;;8.18;;
4305;SDS011;2166;49.926;8.608;2023-06-10T00:45:20;11.38;;;8.50;;
4305;SDS011;2166;49.926;8.608;2023-06-10T00:47:52;10.52;;;8.88;;
4305;SDS011;2166;49.926;8.608;2023-06-10T00:50:24;13.00;;;8.93;;
4305;SDS011;2166;49.926;8.608;2023-06-10T00:52:54;10.82;;;9.27;;
4305;SDS011;2166;49.926;8.608;2023-06-10T00:55:26;10.07;;;8.68;;
4305;SDS011;2166;49.926;8.608;2023-06-10T00:57:55;10.10;;;9.05;;
4305;SDS011;2166;49.926;8.608;2023-06-10T01:00:24;9.40;;;8.38;;
4305;SDS011;2166;49.926;8.608;2023-06-10T01:02:54;9.82;;;8.82;;
4305;SDS011;2166;49.926;8.608;2023-06-10T01:05:27;9.43;;;8.48;;
4305;SDS011;2166;49.926;8.608;2023-06-10T01:07:56;10.38;;;8.48;;
4305;SDS011;2166;49.926;8.608;2023-06-10T01:10:31;10.60;;;8.07;;
4305;SDS011;2166;49.926;8.608;2023-06-10T01:13:05;8.63;;;7.72;;
4305;SDS011;2166;49.926;8.608;2023-06-10T01:15:41;9.70;;;8.65;;
4305;SDS011;2166;49.926;8.608;2023-06-10T01:18:11;11.32;;;8.85;;
4305;SDS011;2166;49.926;8.608;2023-06-10T01:20:43;11.77;;;8.90;;
4305;SDS011;2166;49.926;8.608;2023-06-10T01:23:19;9.85;;;8.57;;
4305;SDS011;2166;49.926;8.608;2023-06-10T01:26:00;12.48;;;9.50;;
4305;SDS011;2166;49.926;8.608;2023-06-10T01:28:36;11.63;;;9.38;;
4305;SDS011;2166;49.926;8.608;2023-06-10T01:31:26;10.80;;;9.18;;
4305;SDS011;2166;49.926;8.608;2023-06-10T01:34:06;22.50;;;10.05;;
4305;SDS011;2166;49.926;8.608;2023-06-10T01:36:39;10.43;;;9.40;;
4305;SDS011;2166;49.926;8.608;2023-06-10T01:39:11;10.27;;;9.15;;
4305;SDS011;2166;49.926;8.608;2023-06-10T01:41:43;11.43;;;8.70;;
4305;SDS011;2166;49.926;8.608;2023-06-10T01:44:17;14.93;;;9.40;;
4305;SDS011;2166;49.926;8.608;2023-06-10T01:46:47;13.70;;;8.95;;
4305;SDS011;2166;49.926;8.608;2023-06-10T01:49:17;10.52;;;9.50;;
4305;SDS011;2166;49.926;8.608;2023-06-10T01:51:48;17.77;;;9.15;;
4305;SDS011;2166;49.926;8.608;2023-06-10T01:54:19;12.20;;;8.85;;
4305;SDS011;2166;49.926;8.608;2023-06-10T01:56:48;9.60;;;8.57;;
4305;SDS011;2166;49.926;8.608;2023-06-10T01:59:18;12.95;;;8.45;;
4305;SDS011;2166;49.926;8.608;2023-06-10T02:01:48;14.65;;;9.40;;
4305;SDS011;2166;49.926;8.608;2023-06-10T02:04:18;11.20;;;9.45;;
4305;SDS011;2166;49.926;8.608;2023-06-10T02:06:49;12.00;;;8.30;;
4305;SDS011;2166;49.926;8.608;2023-06-10T02:09:29;10.13;;;8.73;;
4305;SDS011;2166;49.926;8.608;2023-06-10T02:12:02;13.63;;;8.93;;
4305;SDS011;2166;49.926;8.608;2023-06-10T02:14:34;11.10;;;8.73;;
4305;SDS011;2166;49.926;8.608;2023-06-10T02:17:04;11.23;;;9.15;;
4305;SDS011;2166;49.926;8.608;2023-06-10T02:19:41;10.98;;;8.98;;
4305;SDS011;2166;49.926;8.608;2023-06-10T02:22:20;11.25;;;9.07;;
4305;SDS011;2166;49.926;8.608;2023-06-10T02:24:56;10.48;;;8.40;;
4305;SDS011;2166;49.926;8.608;2023-06-10T02:27:30;12.85;;;9.68;;
4305;SDS011;2166;49.926;8.608;2023-06-10T02:30:00;11.50;;;8.90;;
4305;SDS011;2166;49.926;8.608;2023-06-10T02:32:34;9.77;;;8.70;;
4305;SDS011;2166;49.926;8.608;2023-06-10T02:35:04;10.98;;;9.20;;
4305;SDS011;2166;49.926;8.608;2023-06-10T02:37:38;12.15;;;9.20;;
4305;SDS011;2166;49.926;8.608;2023-06-10T02:40:11;11.75;;;9.55;;
4305;SDS011;2166;49.926;8.608;2023-06-10T02:42:40;11.23;;;9.25;;
4305;SDS011;2166;49.926;8.608;2023-06-10T02:45:13;11.23;;;8.95;;
4305;SDS011;2166;49.926;8.608;2023-06-10T02:47:43;12.57;;;9.25;;
4305;SDS011;2166;49.926;8.608;2023-06-10T02:50:12;11.20;;;9.95;;
4305;SDS011;2166;49.926;8.608;2023-06-10T02:53:02;16.55;;;10.40;;
4305;SDS011;2166;49.926;8.608;2023-06-10T02:55:37;14.32;;;10.60;;
4305;SDS011;2166;49.926;8.608;2023-06-10T02:58:11;11.35;;;9.77;;
4305;SDS011;2166;49.926;8.608;2023-06-10T03:00:41;12.60;;;11.30;;
4305;SDS011;2166;49.926;8.608;2023-06-10T03:03:13;14.25;;;11.75;;
4305;SDS011;2166;49.926;8.608;2023-06-10T03:05:59;14.32;;;11.02;;
4305;SDS011;2166;49.926;8.608;2023-06-10T03:08:31;13.13;;;11.73;;
4305;SDS011;2166;49.926;8.608;2023-06-10T03:11:13;15.35;;;12.68;;
4305;SDS011;2166;49.926;8.608;2023-06-10T03:13:46;13.70;;;11.25;;
4305;SDS011;2166;49.926;8.608;2023-06-10T03:16:18;18.55;;;12.52;;
4305;SDS011;2166;49.926;8.608;2023-06-10T03:18:48;16.77;;;12.07;;
4305;SDS011;2166;49.926;8.608;2023-06-10T03:21:23;15.55;;;12.05;;
4305;SDS011;2166;49.926;8.608;2023-06-10T03:23:55;14.02;;;11.55;;
4305;SDS011;2166;49.926;8.608;2023-06-10T03:26:26;12.82;;;10.23;;
4305;SDS011;2166;49.926;8.608;2023-06-10T03:28:55;12.70;;;11.23;;
4305;SDS011;2166;49.926;8.608;2023-06-10T03:31:26;11.65;;;9.25;;
4305;SDS011;2166;49.926;8.608;2023-06-10T03:33:56;15.27;;;10.68;;
4305;SDS011;2166;49.926;8.608;2023-06-10T03:36:26;13.20;;;8.50;;
4305;SDS011;2166;49.926;8.608;2023-06-10T03:38:57;14.88;;;11.35;;
4305;SDS011;2166;49.926;8.608;2023-06-10T03:41:27;13.02;;;10.30;;
4305;SDS011;2166;49.926;8.608;2023-06-10T03:43:56;15.10;;;11.73;;
4305;SDS011;2166;49.926;8.608;2023-06-10T03:46:28;12.98;;;10.80;;
4305;SDS011;2166;49.926;8.608;2023-06-10T03:48:59;14.73;;;10.68;;
4305;SDS011;2166;49.926;8.608;2023-06-10T03:51:29;15.57;;;10.57;;
4305;SDS011;2166;49.926;8.608;2023-06-10T03:53:58;10.02;;;9.02;;
4305;SDS011;2166;49.926;8.608;2023-06-10T03:56:28;12.48;;;10.40;;
4305;SDS011;2166;49.926;8.608;2023-06-10T03:59:00;11.93;;;9.68;;
4305;SDS011;2166;49.926;8.608;2023-06-10T04:01:33;14.60;;;10.60;;
4305;SDS011;2166;49.926;8.608;2023-06-10T04:04:07;13.55;;;10.77;;
4305;SDS011;2166;49.926;8.608;2023-06-10T04:06:37;13.30;;;10.90;;
4305;SDS011;2166;49.926;8.608;2023-06-10T04:09:10;13.65;;;11.50;;
4305;SDS011;2166;49.926;8.608;2023-06-10T04:11:41;13.50;;;11.05;;
4305;SDS011;2166;49.926;8.608;2023-06-10T04:14:11;11.48;;;9.85;;
4305;SDS011;2166;49.926;8.608;2023-06-10T04:16:40;11.93;;;9.50;;
4305;SDS011;2166;49.926;8.608;2023-06-10T04:19:11;12.60;;;9.55;;
4305;SDS011;2166;49.926;8.608;2023-06-10T04:21:42;12.98;;;10.13;;
4305;SDS011;2166;49.926;8.608;2023-06-10T04:24:11;12.93;;;9.95;;
4305;SDS011;2166;49.926;8.608;2023-06-10T04:26:43;11.85;;;9.30;;
4305;SDS011;2166;49.926;8.608;2023-06-10T04:29:13;12.50;;;8.95;;
4305;SDS011;2166;49.926;8.608;2023-06-10T04:31:45;10.20;;;9.20;;
4305;SDS011;2166;49.926;8.608;2023-06-10T04:34:14;11.60;;;9.55;;
4305;SDS011;2166;49.926;8.608;2023-06-10T04:36:46;10.85;;;8.73;;
4305;SDS011;2166;49.926;8.608;2023-06-10T04:39:17;13.77;;;8.43;;
4305;SDS011;2166;49.926;8.608;2023-06-10T04:41:48;12.60;;;8.07;;
4305;SDS011;2166;49.926;8.608;2023-06-10T04:44:21;9.90;;;7.63;;
4305;SDS011;2166;49.926;8.608;2023-06-10T04:46:52;11.50;;;7.07;;
4305;SDS011;2166;49.926;8.608;2023-06-10T04:49:22;8.07;;;6.85;;
4305;SDS011;2166;49.926;8.608;2023-06-10T04:51:51;10.20;;;7.03;;
4305;SDS011;2166;49.926;8.608;2023-06-10T04:54:21;10.27;;;6.75;;
4305;SDS011;2166;49.926;8.608;2023-06-10T04:56:52;8.88;;;7.35;;
4305;SDS011;2166;49.926;8.608;2023-06-10T04:59:25;9.07;;;6.70;;
4305;SDS011;2166;49.926;8.608;2023-06-10T05:01:58;11.27;;;7.22;;
4305;SDS011;2166;49.926;8.608;2023-06-10T05:04:27;10.18;;;6.07;;
4305;SDS011;2166;49.926;8.608;2023-06-10T05:06:58;12.20;;;6.07;;
4305;SDS011;2166;49.926;8.608;2023-06-10T05:09:28;7.78;;;6.18;;
4305;SDS011;2166;49.926;8.608;2023-06-10T05:12:06;8.15;;;5.22;;
4305;SDS011;2166;49.926;8.608;2023-06-10T05:14:36;9.57;;;6.25;;
4305;SDS011;2166;49.926;8.608;2023-06-10T05:17:06;6.22;;;5.63;;
4305;SDS011;2166;49.926;8.608;2023-06-10T05:19:39;6.18;;;5.38;;
4305;SDS011;2166;49.926;8.608;2023-06-10T05:22:08;7.47;;;5.43;;
4305;SDS011;2166;49.926;8.608;2023-06-10T05:24:37;11.07;;;5.50;;
4305;SDS011;2166;49.926;8.608;2023-06-10T05:27:10;7.85;;;5.28;;
4305;SDS011;2166;49.926;8.608;2023-06-10T05:29:39;9.00;;;5.07;;
4305;SDS011;2166;49.926;8.608;2023-06-10T05:32:08;6.85;;;5.50;;
4305;SDS011;2166;49.926;8.608;2023-06-10T05:34:38;6.30;;;5.22;;
4305;SDS011;2166;49.926;8.608;2023-06-10T05:37:07;6.07;;;5.20;;
4305;SDS011;2166;49.926;8.608;2023-06-10T05:39:35;7.50;;;5.70;;
4305;SDS011;2166;49.926;8.608;2023-06-10T05:42:06;6.13;;;4.85;;
4305;SDS011;2166;49.926;8.608;2023-06-10T05:44:37;5.75;;;5.10;;
4305;SDS011;2166;49.926;8.608;2023-06-10T05:47:07;5.72;;;4.78;;
4305;SDS011;2166;49.926;8.608;2023-06-10T05:49:37;5.85;;;4.60;;
4305;SDS011;2166;49.926;8.608;2023-06-10T05:52:08;6.38;;;4.68;;
4305;SDS011;2166;49.926;8.608;2023-06-10T05:54:37;5.88;;;4.95;;
4305;SDS011;2166;49.926;8.608;2023-06-10T05:57:08;7.15;;;5.00;;
4305;SDS011;2166;49.926;8.608;2023-06-10T05:59:40;5.75;;;4.47;;
4305;SDS011;2166;49.926;8.608;2023-06-10T06:02:11;5.95;;;4.68;;
4305;SDS011;2166;49.926;8.608;2023-06-10T06:04:45;5.45;;;4.50;;
4305;SDS011;2166;49.926;8.608;2023-06-10T06:07:14;5.82;;;4.72;;
4305;SDS011;2166;49.926;8.608;2023-06-10T06:09:43;6.45;;;4.75;;
4305;SDS011;2166;49.926;8.608;2023-06-10T06:12:12;6.93;;;4.57;;
4305;SDS011;2166;49.926;8.608;2023-06-10T06:14:44;11.43;;;5.15;;
4305;SDS011;2166;49.926;8.608;2023-06-10T06:17:13;6.47;;;4.65;;
4305;SDS011;2166;49.926;8.608;2023-06-10T06:19:41;5.80;;;4.80;;
4305;SDS011;2166;49.926;8.608;2023-06-10T06:22:09;6.47;;;4.75;;
4305;SDS011;2166;49.926;8.608;2023-06-10T06:24:39;6.88;;;5.00;;
4305;SDS011;2166;49.926;8.608;2023-06-10T06:27:11;8.98;;;5.25;;
4305;SDS011;2166;49.926;8.608;2023-06-10T06:29:43;9.88;;;5.28;;
4305;SDS011;2166;49.926;8.608;2023-06-10T06:32:14;5.28;;;4.43;;
4305;SDS011;2166;49.926;8.608;2023-06-10T06:34:43;6.60;;;4.85;;
4305;SDS011;2166;49.926;8.608;2023-06-10T06:37:13;7.10;;;4.40;;
4305;SDS011;2166;49.926;8.608;2023-06-10T06:39:44;8.68;;;4.30;;
4305;SDS011;2166;49.926;8.608;2023-06-10T06:42:15;6.88;;;5.03;;
4305;SDS011;2166;49.926;8.608;2023-06-10T06:45:12;6.18;;;4.50;;
4305;SDS011;2166;49.926;8.608;2023-06-10T06:47:41;8.50;;;4.70;;
4305;SDS011;2166;49.926;8.608;2023-06-10T06:50:10;8.52;;;4.60;;
4305;SDS011;2166;49.926;8.608;2023-06-10T06:52:39;7.35;;;4.60;;
4305;SDS011;2166;49.926;8.608;2023-06-10T06:55:08;4.80;;;4.30;;
4305;SDS011;2166;49.926;8.608;2023-06-10T06:57:37;5.70;;;4.53;;
4305;SDS011;2166;49.926;8.608;2023-06-10T07:00:06;7.15;;;4.10;;
4305;SDS011;2166;49.926;8.608;2023-06-10T07:02:37;4.50;;;4.10;;
4305;SDS011;2166;49.926;8.608;2023-06-10T07:05:07;6.35;;;4.45;;
4305;SDS011;2166;49.926;8.608;2023-06-10T07:07:37;9.15;;;3.97;;
4305;SDS011;2166;49.926;8.608;2023-06-10T07:10:06;4.50;;;3.75;;
4305;SDS011;2166;49.926;8.608;2023-06-10T07:12:36;9.10;;;4.45;;
4305;SDS011;2166;49.926;8.608;2023-06-10T07:15:05;4.88;;;4.13;;
4305;SDS011;2166;49.926;8.608;2023-06-10T07:17:41;5.80;;;4.40;;
4305;SDS011;2166;49.926;8.608;2023-06-10T07:20:10;5.22;;;4.22;;
4305;SDS011;2166;49.926;8.608;2023-06-10T07:22:41;4.28;;;3.88;;
4305;SDS011;2166;49.926;8.608;2023-06-10T07:25:13;5.63;;;4.20;;
4305;SDS011;2166;49.926;8.608;2023-06-10T07:27:42;4.63;;;3.80;;
4305;SDS011;2166;49.926;8.608;2023-06-10T07:30:12;4.38;;;3.97;;
4305;SDS011;2166;49.926;8.608;2023-06-10T07:32:44;5.05;;;4.10;;
4305;SDS011;2166;49.926;8.608;2023-06-10T07:35:13;5.70;;;4.13;;
4305;SDS011;2166;49.926;8.608;2023-06-10T07:37:42;4.88;;;4.00;;
4305;SDS011;2166;49.926;8.608;2023-06-10T07:40:13;4.53;;;4.10;;
4305;SDS011;2166;49.926;8.608;2023-06-10T07:42:45;5.70;;;4.15;;
4305;SDS011;2166;49.926;8.608;2023-06-10T07:45:13;5.60;;;4.07;;
4305;SDS011;2166;49.926;8.608;2023-06-10T07:47:44;13.02;;;4.00;;
4305;SDS011;2166;49.926;8.608;2023-06-10T07:50:16;4.23;;;3.77;;
4305;SDS011;2166;49.926;8.608;2023-06-10T07:52:44;5.07;;;4.57;;
4305;SDS011;2166;49.926;8.608;2023-06-10T07:55:13;4.63;;;3.63;;
4305;SDS011;2166;49.926;8.608;2023-06-10T07:57:45;4.75;;;4.15;;
4305;SDS011;2166;49.926;8.608;2023-06-10T08:00:13;10.13;;;4.28;;
4305;SDS011;2166;49.926;8.608;2023-06-10T08:02:46;5.95;;;4.30;;
4305;SDS011;2166;49.926;8.608;2023-06-10T08:05:17;6.38;;;4.32;;
4305;SDS011;2166;49.926;8.608;2023-06-10T08:07:48;4.22;;;3.83;;
4305;SDS011;2166;49.926;8.608;2023-06-10T08:10:17;6.43;;;4.28;;
4305;SDS011;2166;49.926;8.608;2023-06-10T08:12:47;6.05;;;4.10;;
4305;SDS011;2166;49.926;8.608;2023-06-10T08:15:18;6.80;;;4.18;;
4305;SDS011;2166;49.926;8.608;2023-06-10T08:17:48;5.93;;;4.32;;
4305;SDS011;2166;49.926;8.608;2023-06-10T08:20:17;4.53;;;4.13;;
4305;SDS011;2166;49.926;8.608;2023-06-10T08:22:45;6.10;;;3.78;;
4305;SDS011;2166;49.926;8.608;2023-06-10T08:25:13;6.18;;;4.28;;
4305;SDS011;2166;49.926;8.608;2023-06-10T08:27:42;4.40;;;3.80;;
4305;SDS011;2166;49.926;8.608;2023-06-10T08:30:11;6.28;;;3.80;;
4305;SDS011;2166;49.926;8.608;2023-06-10T08:32:42;7.85;;;3.97;;
4305;SDS011;2166;49.926;8.608;2023-06-10T08:35:12;4.22;;;3.83;;
4305;SDS011;2166;49.926;8.608;2023-06-10T08:37:41;3.90;;;3.50;;
4305;SDS011;2166;49.926;8.608;2023-06-10T08:40:10;7.07;;;3.92;;
4305;SDS011;2166;49.926;8.608;2023-06-10T08:42:43;6.03;;;3.90;;
4305;SDS011;2166;49.926;8.608;2023-06-10T08:47:46;3.78;;;3.30;;
4305;SDS011;2166;49.926;8.608;2023-06-10T08:50:21;7.25;;;4.00;;
4305;SDS011;2166;49.926;8.608;2023-06-10T08:52:53;6.03;;;4.00;;
4305;SDS011;2166;49.926;8.608;2023-06-10T08:55:29;5.97;;;4.05;;
4305;SDS011;2166;49.926;8.608;2023-06-10T08:57:59;4.22;;;3.83;;
4305;SDS011;2166;49.926;8.608;2023-06-10T09:00:31;5.53;;;3.58;;
4305;SDS011;2166;49.926;8.608;2023-06-10T09:03:00;5.72;;;3.70;;
4305;SDS011;2166;49.926;8.608;2023-06-10T09:05:33;7.05;;;4.00;;
4305;SDS011;2166;49.926;8.608;2023-06-10T09:08:05;6.88;;;4.10;;
4305;SDS011;2166;49.926;8.608;2023-06-10T09:10:35;6.13;;;4.20;;
4305;SDS011;2166;49.926;8.608;2023-06-10T09:13:04;6.35;;;3.78;;
4305;SDS011;2166;49.926;8.608;2023-06-10T09:15:34;6.38;;;4.10;;
4305;SDS011;2166;49.926;8.608;2023-06-10T09:18:08;6.57;;;4.00;;
4305;SDS011;2166;49.926;8.608;2023-06-10T09:20:41;4.88;;;3.60;;
4305;SDS011;2166;49.926;8.608;2023-06-10T09:23:11;5.38;;;4.43;;
4305;SDS011;2166;49.926;8.608;2023-06-10T09:25:43;4.15;;;3.70;;
4305;SDS011;2166;49.926;8.608;2023-06-10T09:28:13;4.80;;;3.60;;
4305;SDS011;2166;49.926;8.608;2023-06-10T09:30:42;4.35;;;3.42;;
4305;SDS011;2166;49.926;8.608;2023-06-10T09:33:13;5.72;;;3.33;;
4305;SDS011;2166;49.926;8.608;2023-06-10T09:35:47;6.60;;;3.58;;
4305;SDS011;2166;49.926;8.608;2023-06-10T09:38:19;13.82;;;3.97;;
4305;SDS011;2166;49.926;8.608;2023-06-10T09:40:49;10.13;;;4.35;;
4305;SDS011;2166;49.926;8.608;2023-06-10T09:43:19;4.20;;;3.70;;
4305;SDS011;2166;49.926;8.608;2023-06-10T09:45:48;4.70;;;3.83;;
4305;SDS011;2166;49.926;8.608;2023-06-10T09:48:19;3.78;;;3.42;;
4305;SDS011;2166;49.926;8.608;2023-06-10T09:50:52;4.68;;;3.88;;
4305;SDS011;2166;49.926;8.608;2023-06-10T09:53:22;6.22;;;3.63;;
4305;SDS011;2166;49.926;8.608;2023-06-10T09:55:52;4.47;;;3.78;;
4305;SDS011;2166;49.926;8.608;2023-06-10T09:58:33;3.75;;;3.45;;
4305;SDS011;2166;49.926;8.608;2023-06-10T10:01:05;5.72;;;3.33;;
4305;SDS011;2166;49.926;8.608;2023-06-10T10:03:42;6.82;;;3.25;;
4305;SDS011;2166;49.926;8.608;2023-06-10T10:06:15;3.30;;;3.03;;
4305;SDS011;2166;49.926;8.608;2023-06-10T10:08:47;6.03;;;3.15;;
4305;SDS011;2166;49.926;8.608;2023-06-10T10:11:18;5.07;;;3.33;;
4305;SDS011;2166;49.926;8.608;2023-06-10T10:13:48;4.53;;;2.85;;
4305;SDS011;2166;49.926;8.608;2023-06-10T10:16:19;4.88;;;3.22;;
4305;SDS011;2166;49.926;8.608;2023-06-10T10:18:51;3.97;;;3.50;;
4305;SDS011;2166;49.926;8.608;2023-06-10T10:21:26;4.68;;;3.10;;
4305;SDS011;2166;49.926;8.608;2023-06-10T10:23:59;6.18;;;3.65;;
4305;SDS011;2166;49.926;8.608;2023-06-10T10:29:03;13.88;;;3.85;;
4305;SDS011;2166;49.926;8.608;2023-06-10T10:31:38;6.63;;;3.55;;
4305;SDS011;2166;49.926;8.608;2023-06-10T10:34:12;7.77;;;3.23;;
4305;SDS011;2166;49.926;8.608;2023-06-10T10:36:46;5.13;;;2.65;;
4305;SDS011;2166;49.926;8.608;2023-06-10T10:39:16;7.85;;;3.10;;
4305;SDS011;2166;49.926;8.608;2023-06-10T10:41:46;5.65;;;3.50;;
4305;SDS011;2166;49.926;8.608;2023-06-10T10:44:16;5.95;;;3.05;;
4305;SDS011;2166;49.926;8.608;2023-06-10T10:46:48;4.25;;;2.58;;
4305;SDS011;2166;49.926;8.608;2023-06-10T10:49:19;2.83;;;2.40;;
4305;SDS011;2166;49.926;8.608;2023-06-10T10:51:58;3.63;;;2.95;;
4305;SDS011;2166;49.926;8.608;2023-06-10T10:54:28;3.88;;;2.65;;
4305;SDS011;2166;49.926;8.608;2023-06-10T10:59:51;3.45;;;2.60;;
4305;SDS011;2166;49.926;8.608;2023-06-10T11:02:35;6.38;;;2.88;;
4305;SDS011;2166;49.926;8.608;2023-06-10T11:05:10;4.78;;;2.63;;
4305;SDS011;2166;49.926;8.608;2023-06-10T11:07:52;3.08;;;2.63;;
4305;SDS011;2166;49.926;8.608;2023-06-10T11:10:30;5.90;;;3.10;;
4305;SDS011;2166;49.926;8.608;2023-06-10T11:12:59;7.28;;;3.20;;
4305;SDS011;2166;49.926;8.608;2023-06-10T11:15:30;2.97;;;2.63;;
4305;SDS011;2166;49.926;8.608;2023-06-10T11:18:11;3.60;;;2.33;;
4305;SDS011;2166;49.926;8.608;2023-06-10T11:20:56;3.25;;;2.55;;
4305;SDS011;2166;49.926;8.608;2023-06-10T11:23:40;3.13;;;2.80;;
4305;SDS011;2166;49.926;8.608;2023-06-10T11:29:06;5.60;;;2.03;;
4305;SDS011;2166;49.926;8.608;2023-06-10T11:31:46;3.58;;;2.35;;
4305;SDS011;2166;49.926;8.608;2023-06-10T11:34:22;3.35;;;2.28;;
4305;SDS011;2166;49.926;8.608;2023-06-10T11:36:53;3.47;;;2.40;;
4305;SDS011;2166;49.926;8.608;2023-06-10T11:39:27;2.78;;;2.50;;
4305;SDS011;2166;49.926;8.608;2023-06-10T11:41:56;10.68;;;2.63;;
4305;SDS011;2166;49.926;8.608;2023-06-10T11:44:27;2.33;;;1.98;;
4305;SDS011;2166;49.926;8.608;2023-06-10T11:46:59;2.70;;;2.13;;
4305;SDS011;2166;49.926;8.608;2023-06-10T11:49:28;2.40;;;2.13;;
4305;SDS011;2166;49.926;8.608;2023-06-10T11:51:57;4.03;;;2.25;;
4305;SDS011;2166;49.926;8.608;2023-06-10T11:54:36;2.20;;;2.03;;
4305;SDS011;2166;49.926;8.608;2023-06-10T11:57:05;2.40;;;2.20;;
4305;SDS011;2166;49.926;8.608;2023-06-10T11:59:34;2.50;;;2.00;;
4305;SDS011;2166;49.926;8.608;2023-06-10T12:02:04;3.75;;;2.00;;
4305;SDS011;2166;49.926;8.608;2023-06-10T12:04:32;5.47;;;2.00;;
4305;SDS011;2166;49.926;8.608;2023-06-10T12:07:01;2.53;;;1.70;;
4305;SDS011;2166;49.926;8.608;2023-06-10T12:09:30;2.15;;;1.80;;
4305;SDS011;2166;49.926;8.608;2023-06-10T12:12:05;3.80;;;2.20;;
4305;SDS011;2166;49.926;8.608;2023-06-10T12:14:50;4.78;;;2.30;;
4305;SDS011;2166;49.926;8.608;2023-06-10T12:17:38;4.10;;;2.10;;
4305;SDS011;2166;49.926;8.608;2023-06-10T12:20:24;2.75;;;1.92;;
4305;SDS011;2166;49.926;8.608;2023-06-10T12:22:58;3.58;;;1.88;;
4305;SDS011;2166;49.926;8.608;2023-06-10T12:25:29;4.68;;;1.90;;
4305;SDS011;2166;49.926;8.608;2023-06-10T12:28:00;3.33;;;1.70;;
4305;SDS011;2166;49.926;8.608;2023-06-10T12:30:31;4.13;;;2.47;;
4305;SDS011;2166;49.926;8.608;2023-06-10T12:33:00;3.92;;;2.17;;
4305;SDS011;2166;49.926;8.608;2023-06-10T12:35:30;4.00;;;2.03;;
4305;SDS011;2166;49.926;8.608;2023-06-10T12:38:01;5.10;;;2.45;;
4305;SDS011;2166;49.926;8.608;2023-06-10T12:40:34;4.30;;;1.88;;
4305;SDS011;2166;49.926;8.608;2023-06-10T12:43:08;2.78;;;2.30;;
4305;SDS011;2166;49.926;8.608;2023-06-10T12:45:46;3.30;;;2.20;;
4305;SDS011;2166;49.926;8.608;2023-06-10T12:48:17;5.90;;;2.13;;
4305;SDS011;2166;49.926;8.608;2023-06-10T12:50:50;3.92;;;2.65;;
4305;SDS011;2166;49.926;8.608;2023-06-10T12:53:23;4.85;;;2.70;;
4305;SDS011;2166;49.926;8.608;2023-06-10T12:55:54;2.83;;;2.27;;
4305;SDS011;2166;49.926;8.608;2023-06-10T12:58:26;3.03;;;2.50;;
4305;SDS011;2166;49.926;8.608;2023-06-10T13:00:56;4.97;;;3.20;;
4305;SDS011;2166;49.926;8.608;2023-06-10T13:03:26;3.80;;;2.33;;
4305;SDS011;2166;49.926;8.608;2023-06-10T13:05:55;3.83;;;2.53;;
4305;SDS011;2166;49.926;8.608;2023-06-10T13:08:24;3.40;;;2.40;;
4305;SDS011;2166;49.926;8.608;2023-06-10T13:10:53;5.45;;;2.63;;
4305;SDS011;2166;49.926;8.608;2023-06-10T13:13:21;5.05;;;2.55;;
4305;SDS011;2166;49.926;8.608;2023-06-10T13:15:54;4.50;;;2.40;;
4305;SDS011;2166;49.926;8.608;2023-06-10T13:18:24;2.67;;;2.35;;
4305;SDS011;2166;49.926;8.608;2023-06-10T13:20:53;7.57;;;2.83;;
4305;SDS011;2166;49.926;8.608;2023-06-10T13:23:23;5.53;;;2.63;;
4305;SDS011;2166;49.926;8.608;2023-06-10T13:25:51;4.57;;;2.53;;
4305;SDS011;2166;49.926;8.608;2023-06-10T13:28:19;2.90;;;2.63;;
4305;SDS011;2166;49.926;8.608;2023-06-10T13:30:48;4.95;;;2.55;;
4305;SDS011;2166;49.926;8.608;2023-06-10T13:33:21;3.22;;;2.58;;
4305;SDS011;2166;49.926;8.608;2023-06-10T13:35:50;4.95;;;4.35;;
4305;SDS011;2166;49.926;8.608;2023-06-10T13:38:19;5.40;;;2.92;;
4305;SDS011;2166;49.926;8.608;2023-06-10T13:40:47;3.20;;;2.90;;
4305;SDS011;2166;49.926;8.608;2023-06-10T13:43:18;4.93;;;2.50;;
4305;SDS011;2166;49.926;8.608;2023-06-10T13:45:49;4.55;;;2.88;;
4305;SDS011;2166;49.926;8.608;2023-06-10T13:48:21;5.22;;;2.92;;
4305;SDS011;2166;49.926;8.608;2023-06-10T13:50:52;4.32;;;3.00;;
4305;SDS011;2166;49.926;8.608;2023-06-10T13:53:22;3.17;;;2.88;;
4305;SDS011;2166;49.926;8.608;2023-06-10T13:55:51;5.45;;;2.58;;
4305;SDS011;2166;49.926;8.608;2023-06-10T13:58:26;4.70;;;2.78;;
4305;SDS011;2166;49.926;8.608;2023-06-10T14:00:57;4.78;;;2.83;;
4305;SDS011;2166;49.926;8.608;2023-06-10T14:03:28;2.83;;;2.50;;
4305;SDS011;2166;49.926;8.608;2023-06-10T14:06:00;3.47;;;2.40;;
4305;SDS011;2166;49.926;8.608;2023-06-10T14:08:31;6.45;;;3.30;;
4305;SDS011;2166;49.926;8.608;2023-06-10T14:11:00;4.35;;;3.00;;
4305;SDS011;2166;49.926;8.608;2023-06-10T14:13:31;5.93;;;3.40;;
4305;SDS011;2166;49.926;8.608;2023-06-10T14:16:00;4.38;;;3.45;;
4305;SDS011;2166;49.926;8.608;2023-06-10T14:18:32;5.82;;;3.92;;
4305;SDS011;2166;49.926;8.608;2023-06-10T14:21:00;6.60;;;4.57;;
4305;SDS011;2166;49.926;8.608;2023-06-10T14:23:29;5.25;;;3.67;;
4305;SDS011;2166;49.926;8.608;2023-06-10T14:25:58;3.72;;;3.20;;
4305;SDS011;2166;49.926;8.608;2023-06-10T14:28:27;3.95;;;2.33;;
4305;SDS011;2166;49.926;8.608;2023-06-10T14:30:56;3.85;;;2.97;;
4305;SDS011;2166;49.926;8.608;2023-06-10T14:33:24;3.53;;;2.40;;
4305;SDS011;2166;49.926;8.608;2023-06-10T14:35:54;4.43;;;2.33;;
4305;SDS011;2166;49.926;8.608;2023-06-10T14:38:22;3.35;;;2.45;;
4305;SDS011;2166;49.926;8.608;2023-06-10T14:40:51;2.85;;;2.58;;
4305;SDS011;2166;49.926;8.608;2023-06-10T14:43:22;2.67;;;2.47;;
4305;SDS011;2166;49.926;8.608;2023-06-10T14:45:51;5.38;;;2.30;;
4305;SDS011;2166;49.926;8.608;2023-06-10T14:48:21;4.47;;;2.72;;
4305;SDS011;2166;49.926;8.608;2023-06-10T14:50:51;2.92;;;2.65;;
4305;SDS011;2166;49.926;8.608;2023-06-10T14:53:23;5.00;;;2.92;;
4305;SDS011;2166;49.926;8.608;2023-06-10T14:55:52;4.85;;;2.83;;
4305;SDS011;2166;49.926;8.608;2023-06-10T14:58:23;3.17;;;2.80;;
4305;SDS011;2166;49.926;8.608;2023-06-10T15:00:51;4.85;;;2.70;;
4305;SDS011;2166;49.926;8.608;2023-06-10T15:03:20;2.80;;;2.60;;
4305;SDS011;2166;49.926;8.608;2023-06-10T15:05:48;4.25;;;2.67;;
4305;SDS011;2166;49.926;8.608;2023-06-10T15:08:17;3.13;;;2.55;;
4305;SDS011;2166;49.926;8.608;2023-06-10T15:10:48;5.60;;;3.10;;
4305;SDS011;2166;49.926;8.608;2023-06-10T15:13:16;7.03;;;2.97;;
4305;SDS011;2166;49.926;8.608;2023-06-10T15:15:45;5.47;;;3.40;;
4305;SDS011;2166;49.926;8.608;2023-06-10T15:18:14;3.50;;;3.20;;
4305;SDS011;2166;49.926;8.608;2023-06-10T15:20:42;4.28;;;3.88;;
4305;SDS011;2166;49.926;8.608;2023-06-10T15:23:12;8.45;;;3.78;;
4305;SDS011;2166;49.926;8.608;2023-06-10T15:25:41;3.25;;;2.97;;
4305;SDS011;2166;49.926;8.608;2023-06-10T15:28:11;4.40;;;3.40;;
4305;SDS011;2166;49.926;8.608;2023-06-10T15:30:39;5.93;;;3.67;;
4305;SDS011;2166;49.926;8.608;2023-06-10T15:33:08;5.70;;;2.60;;
4305;SDS011;2166;49.926;8.608;2023-06-10T15:35:37;3.10;;;2.70;;
4305;SDS011;2166;49.926;8.608;2023-06-10T15:38:06;5.97;;;2.88;;
4305;SDS011;2166;49.926;8.608;2023-06-10T15:40:35;3.58;;;2.55;;
4305;SDS011;2166;49.926;8.608;2023-06-10T15:43:04;6.35;;;2.92;;
4305;SDS011;2166;49.926;8.608;2023-06-10T15:45:34;3.70;;;3.00;;
4305;SDS011;2166;49.926;8.608;2023-06-10T15:48:03;3.10;;;2.60;;